createdAt,value
2023-04-22T00:02:27.062Z,3.90
2023-04-22T00:07:48.864Z,3.90
2023-04-22T00:10:35.718Z,3.90
2023-04-22T00:13:36.992Z,3.30
2023-04-22T00:17:02.345Z,3.40
2023-04-22T00:19:44.090Z,3.50
2023-04-22T00:22:31.571Z,3.40
2023-04-22T00:25:08.429Z,3.60
2023-04-22T00:28:09.189Z,4.00
2023-04-22T00:31:27.132Z,3.50
2023-04-22T00:34:09.845Z,4.20
2023-04-22T00:36:46.937Z,3.40
2023-04-22T00:39:26.511Z,3.90
2023-04-22T00:42:19.163Z,3.60
2023-04-22T00:45:07.284Z,3.50
2023-04-22T00:48:21.304Z,3.80
2023-04-22T00:54:34.748Z,4.20
2023-04-22T00:57:41.784Z,4.10
2023-04-22T01:00:18.601Z,3.90
2023-04-22T01:02:58.516Z,3.90
2023-04-22T01:05:42.726Z,4.00
2023-04-22T01:08:25.805Z,3.40
2023-04-22T01:11:15.727Z,4.00
2023-04-22T01:20:00.480Z,3.70
2023-04-22T01:22:52.547Z,5.00
2023-04-22T01:25:28.921Z,4.30
2023-04-22T01:28:06.382Z,4.30
2023-04-22T01:31:00.700Z,4.70
2023-04-22T01:37:01.884Z,4.00
2023-04-22T01:39:47.042Z,4.80
2023-04-22T01:42:48.736Z,4.30
2023-04-22T01:45:31.490Z,4.40
2023-04-22T01:48:03.584Z,4.80
2023-04-22T01:51:27.157Z,3.50
2023-04-22T01:54:14.226Z,4.70
2023-04-22T01:56:51.571Z,4.60
2023-04-22T01:59:49.980Z,4.20
2023-04-22T02:02:26.323Z,4.50
2023-04-22T02:05:44.925Z,4.40
2023-04-22T02:08:31.257Z,3.90
2023-04-22T02:11:39.169Z,4.20
2023-04-22T02:14:14.881Z,4.20
2023-04-22T02:16:47.535Z,4.50
2023-04-22T02:20:02.290Z,3.80
2023-04-22T02:22:50.167Z,4.30
2023-04-22T02:25:28.898Z,4.30
2023-04-22T02:28:02.960Z,4.40
2023-04-22T02:30:40.177Z,4.30
2023-04-22T02:33:16.363Z,3.50
2023-04-22T02:35:51.306Z,4.00
2023-04-22T02:38:25.226Z,3.80
2023-04-22T02:41:22.557Z,4.90
2023-04-22T02:44:23.815Z,3.80
2023-04-22T02:48:13.932Z,4.80
2023-04-22T02:50:52.098Z,5.30
2023-04-22T02:53:48.876Z,4.60
2023-04-22T02:56:48.241Z,4.50
2023-04-22T02:59:40.658Z,4.60
2023-04-22T03:02:18.405Z,4.70
2023-04-22T03:05:32.928Z,4.20
2023-04-22T03:08:33.363Z,5.10
2023-04-22T03:11:06.022Z,6.80
2023-04-22T03:13:49.566Z,4.90
2023-04-22T03:16:22.942Z,4.80
2023-04-22T03:18:58.319Z,4.90
2023-04-22T03:22:09.183Z,4.60
2023-04-22T03:24:45.061Z,5.80
2023-04-22T03:27:45.199Z,4.20
2023-04-22T03:30:38.031Z,5.10
2023-04-22T03:34:20.096Z,5.10
2023-04-22T03:37:07.194Z,4.50
2023-04-22T03:39:58.082Z,4.10
2023-04-22T03:43:37.358Z,5.60
2023-04-22T03:46:23.666Z,4.70
2023-04-22T03:50:44.657Z,4.40
2023-04-22T03:54:08.792Z,5.30
2023-04-22T03:57:53.487Z,4.60
2023-04-22T04:00:45.923Z,4.80
2023-04-22T04:03:31.617Z,4.50
2023-04-22T04:06:08.461Z,4.70
2023-04-22T04:09:05.995Z,4.80
2023-04-22T04:12:38.495Z,6.00
2023-04-22T04:15:21.489Z,5.40
2023-04-22T04:17:58.686Z,5.50
2023-04-22T04:21:05.232Z,5.50
2023-04-22T04:23:53.212Z,5.80
2023-04-22T04:27:03.420Z,6.80
2023-04-22T04:29:47.116Z,5.70
2023-04-22T04:33:18.216Z,5.90
2023-04-22T04:36:22.372Z,5.70
2023-04-22T04:52:44.265Z,5.60
2023-04-22T04:56:04.028Z,6.00
2023-04-22T04:58:44.140Z,5.80
2023-04-22T05:01:58.938Z,5.30
2023-04-22T05:04:50.883Z,5.50
2023-04-22T05:07:44.244Z,5.20
2023-04-22T05:10:27.549Z,4.80
2023-04-22T05:17:44.600Z,4.40
2023-04-22T05:20:32.598Z,4.30
2023-04-22T05:23:26.717Z,4.10
2023-04-22T05:26:49.229Z,4.20
2023-04-22T05:41:55.987Z,4.30
2023-04-22T05:48:19.883Z,4.80
2023-04-22T05:52:00.547Z,4.30
2023-04-22T05:55:37.889Z,3.90
2023-04-22T06:06:40.042Z,3.00
2023-04-22T06:10:18.089Z,4.20
2023-04-22T06:13:43.892Z,4.30
2023-04-22T06:17:06.646Z,3.90
2023-04-22T06:20:04.530Z,4.20
2023-04-22T06:23:13.824Z,3.90
2023-04-22T06:26:18.391Z,4.40
2023-04-22T06:32:38.600Z,4.70
2023-04-22T06:43:20.651Z,2.70
2023-04-22T06:53:35.340Z,2.40
2023-04-22T06:57:51.834Z,2.80
2023-04-22T07:01:58.982Z,2.20
2023-04-22T07:05:20.269Z,2.10
2023-04-22T07:09:02.003Z,2.70
2023-04-22T07:23:22.905Z,2.80
2023-04-22T07:26:21.634Z,2.40
2023-04-22T07:29:29.394Z,2.90
2023-04-22T07:32:51.743Z,2.90
2023-04-22T07:36:30.542Z,2.70
2023-04-22T07:40:23.698Z,2.90
2023-04-22T07:43:51.902Z,3.50
2023-04-22T07:50:29.579Z,3.60
2023-04-22T07:53:12.580Z,3.30
2023-04-22T07:56:09.268Z,3.60
2023-04-22T08:03:40.223Z,3.60
2023-04-22T08:07:42.901Z,2.40
2023-04-22T08:13:47.624Z,2.30
2023-04-22T08:20:39.474Z,3.30
2023-04-22T08:24:02.311Z,3.40
2023-04-22T08:28:00.313Z,2.70
2023-04-22T08:31:10.625Z,3.20
2023-04-22T08:37:13.963Z,3.00
2023-04-22T08:47:27.069Z,2.90
2023-04-22T08:59:08.912Z,2.70
2023-04-22T09:09:15.175Z,2.90
2023-04-22T09:12:36.286Z,3.40
2023-04-22T09:16:11.225Z,3.20
2023-04-22T09:29:15.583Z,3.40
2023-04-22T09:36:48.333Z,5.40
2023-04-22T09:40:19.793Z,3.10
2023-04-22T09:43:09.532Z,3.70
2023-04-22T09:50:13.223Z,3.80
2023-04-22T09:53:32.155Z,3.60
2023-04-22T09:56:56.565Z,3.50
2023-04-22T09:59:41.639Z,3.90
2023-04-22T10:02:22.360Z,4.20
2023-04-22T10:05:40.212Z,3.70
2023-04-22T10:08:30.952Z,4.30
2023-04-22T10:11:27.568Z,4.00
2023-04-22T10:15:13.198Z,3.40
2023-04-22T10:18:12.021Z,3.70
2023-04-22T10:21:20.202Z,3.40
2023-04-22T10:24:16.614Z,3.80
2023-04-22T10:27:27.578Z,4.20
2023-04-22T10:30:59.554Z,3.70
2023-04-22T10:33:46.674Z,3.80
2023-04-22T10:36:25.129Z,3.80
2023-04-22T10:40:01.201Z,4.20
2023-04-22T10:43:27.842Z,3.30
2023-04-22T10:46:05.172Z,3.30
2023-04-22T10:49:55.029Z,3.20
2023-04-22T10:52:48.054Z,3.80
2023-04-22T10:55:27.570Z,3.50
2023-04-22T10:58:34.632Z,4.30
2023-04-22T11:01:33.961Z,3.20
2023-04-22T11:05:08.263Z,3.30
2023-04-22T11:07:47.509Z,4.00
2023-04-22T11:11:43.767Z,4.20
2023-04-22T11:14:36.923Z,3.40
2023-04-22T11:17:58.423Z,5.00
2023-04-22T11:21:29.085Z,4.00
2023-04-22T11:24:27.886Z,3.50
2023-04-22T11:27:27.396Z,3.30
2023-04-22T11:33:50.460Z,3.50
2023-04-22T11:36:58.068Z,3.60
2023-04-22T11:40:29.358Z,4.80
2023-04-22T11:43:08.271Z,3.80
2023-04-22T11:46:02.580Z,3.30
2023-04-22T11:49:17.736Z,4.40
2023-04-22T11:52:21.180Z,3.90
2023-04-22T12:04:12.983Z,3.50
2023-04-22T12:08:05.232Z,4.80
2023-04-22T12:10:51.959Z,3.50
2023-04-22T12:13:42.404Z,3.50
2023-04-22T12:16:46.782Z,2.70
2023-04-22T12:19:26.586Z,3.00
2023-04-22T12:22:33.695Z,2.90
2023-04-22T12:25:17.943Z,3.60
2023-04-22T12:28:22.889Z,2.90
2023-04-22T12:31:47.601Z,2.30
2023-04-22T12:34:41.457Z,2.70
2023-04-22T12:38:07.365Z,2.50
2023-04-22T12:41:22.511Z,2.40
2023-04-22T12:48:20.484Z,3.10
2023-04-22T12:51:31.716Z,2.40
2023-04-22T12:54:10.388Z,2.60
2023-04-22T12:56:54.697Z,2.50
2023-04-22T13:00:20.959Z,1.80
2023-04-22T13:03:17.531Z,2.80
2023-04-22T13:05:53.121Z,4.00
2023-04-22T13:09:26.292Z,2.90
2023-04-22T13:13:19.048Z,2.20
2023-04-22T13:16:40.924Z,2.90
2023-04-22T13:19:19.562Z,3.20
2023-04-22T13:23:03.092Z,2.70
2023-04-22T13:32:47.891Z,3.80
2023-04-22T13:35:24.775Z,3.30
2023-04-22T13:38:54.310Z,3.50
2023-04-22T13:49:58.209Z,3.00
2023-04-22T13:53:26.969Z,2.90
2023-04-22T13:56:32.866Z,3.80
2023-04-22T13:59:42.402Z,2.70
2023-04-22T20:53:44.283Z,4.30
2023-04-22T20:56:51.261Z,4.50
2023-04-22T20:59:23.184Z,4.60
2023-04-22T21:02:01.184Z,4.60
2023-04-22T21:04:35.266Z,4.60
2023-04-22T21:07:12.667Z,3.40
2023-04-22T21:09:58.841Z,3.60
2023-04-22T21:12:32.418Z,4.00
2023-04-22T21:15:04.786Z,3.90
2023-04-22T21:21:35.864Z,3.70
2023-04-22T21:24:23.280Z,4.00
2023-04-22T21:26:58.029Z,3.60
2023-04-22T21:29:27.512Z,4.00
2023-04-22T21:35:09.250Z,3.50
2023-04-22T21:37:43.377Z,3.80
2023-04-22T21:40:21.137Z,3.90
2023-04-22T21:42:56.614Z,3.60
2023-04-22T21:45:31.531Z,3.60
2023-04-22T21:48:12.762Z,3.40
2023-04-22T21:50:52.825Z,3.80
2023-04-22T21:53:28.352Z,4.10
2023-04-22T21:56:05.007Z,4.40
2023-04-22T21:58:41.657Z,3.80
2023-04-22T22:01:25.150Z,4.30
2023-04-22T22:04:06.677Z,3.50
2023-04-22T22:07:01.985Z,4.60
2023-04-22T22:10:06.319Z,3.30
2023-04-22T22:13:10.704Z,4.20
2023-04-22T22:15:46.878Z,3.60
2023-04-22T22:18:24.333Z,3.40
2023-04-22T22:21:08.554Z,3.90
2023-04-22T22:23:39.827Z,3.70
2023-04-22T22:26:36.734Z,3.90
2023-04-22T22:29:14.713Z,4.40
2023-04-22T22:31:52.089Z,4.20
2023-04-22T22:35:44.934Z,4.70
2023-04-22T22:38:18.779Z,3.80
2023-04-22T22:40:55.533Z,4.70
2023-04-22T22:43:39.889Z,4.60
2023-04-22T22:46:18.648Z,5.10
2023-04-22T22:48:54.627Z,3.90
2023-04-22T22:51:22.966Z,4.60
2023-04-22T22:53:55.414Z,4.40
2023-04-22T22:56:24.620Z,4.80
2023-04-22T22:59:29.889Z,4.30
2023-04-22T23:04:58.833Z,4.40
2023-04-22T23:07:32.660Z,4.70
2023-04-22T23:12:51.483Z,4.60
2023-04-22T23:15:28.763Z,5.10
2023-04-22T23:17:59.228Z,5.60
2023-04-22T23:20:38.558Z,5.30
2023-04-22T23:23:11.287Z,5.60
2023-04-22T23:28:19.468Z,4.80
2023-04-22T23:30:57.172Z,4.80
2023-04-22T23:33:30.267Z,4.80
2023-04-22T23:36:08.868Z,4.10
2023-04-22T23:39:09.401Z,4.80
2023-04-22T23:41:42.007Z,4.70
2023-04-22T23:44:16.290Z,4.40
2023-04-22T23:46:56.319Z,4.60
2023-04-22T23:49:28.185Z,4.30
2023-04-22T23:52:01.765Z,4.90
2023-04-22T23:54:36.506Z,4.70
2023-04-22T23:57:07.774Z,4.30
2023-04-22T23:59:39.452Z,4.80
